Etzikom, Canada
Current Conditions -  °F | °C
As of 7:00 PM on Thursday 20 Nov 2014 (Local Time) from CYXH Reporting Station
Broken Clouds Broken Clouds  
Wind Chill: -2°   Ceiling: 27000
Heat Index:   Visibility: 15mi
Dew Point: -1°   Wind: 15mph
Humidity: 75%   Direction: 210°SSW
Pressure: 29.64"   Gusts: 21mph
Location:  49.48°N, 111.1°W
Report Text: CYXH 210200Z 21013G18KT 15SM BKN270 03/M01 A2964 RMK CI7 SLP070
Loading
Personal Weather Stations






























Interactive Weather Map New forecast layout! Learn more

10-Day Weather Forecast

Advertisements
Track Severe Weather on mobile